createdAt,value
2017-10-03T00:02:22.806Z,16.50
2017-10-03T00:04:51.386Z,16.20
2017-10-03T00:07:19.214Z,17.63
2017-10-03T00:09:53.282Z,16.80
2017-10-03T00:12:21.182Z,15.67
2017-10-03T00:14:48.929Z,16.03
2017-10-03T00:17:16.674Z,15.80
2017-10-03T00:19:44.490Z,15.63
2017-10-03T00:22:12.237Z,16.27
2017-10-03T00:24:39.995Z,16.20
2017-10-03T00:27:07.818Z,15.93
2017-10-03T00:29:35.563Z,15.00
2017-10-03T00:32:03.362Z,14.97
2017-10-03T00:34:31.890Z,14.93
2017-10-03T00:36:59.709Z,15.50
2017-10-03T00:39:27.507Z,14.83
2017-10-03T00:41:55.355Z,16.37
2017-10-03T00:44:23.895Z,15.73
2017-10-03T00:46:51.696Z,14.23
2017-10-03T00:49:19.518Z,15.50
2017-10-03T00:51:47.284Z,15.50
2017-10-03T00:54:15.025Z,15.17
2017-10-03T00:56:42.852Z,15.50
2017-10-03T00:59:10.655Z,16.23
2017-10-03T01:01:39.242Z,15.70
2017-10-03T01:04:07.038Z,15.97
2017-10-03T01:06:34.812Z,15.07
2017-10-03T01:09:02.711Z,16.60
2017-10-03T01:11:30.499Z,16.70
2017-10-03T01:13:58.303Z,16.43
2017-10-03T01:16:26.164Z,19.03
2017-10-03T01:18:53.927Z,15.13
2017-10-03T01:21:21.771Z,15.00
2017-10-03T01:23:50.439Z,16.90
2017-10-03T01:26:18.307Z,15.90
2017-10-03T01:28:46.142Z,16.00
2017-10-03T01:31:13.918Z,15.00
2017-10-03T01:33:41.731Z,15.97
2017-10-03T01:36:09.530Z,16.63
2017-10-03T01:38:37.499Z,15.40
2017-10-03T01:41:05.228Z,15.80
2017-10-03T01:43:33.024Z,15.10
2017-10-03T01:46:00.914Z,15.70
2017-10-03T01:48:28.646Z,15.63
2017-10-03T01:50:56.386Z,17.30
2017-10-03T01:53:24.132Z,15.20
2017-10-03T01:55:51.920Z,16.60
2017-10-03T01:58:19.683Z,16.10
2017-10-03T02:00:47.516Z,16.50
2017-10-03T02:03:15.258Z,17.00
2017-10-03T02:05:42.996Z,15.40
2017-10-03T02:08:10.796Z,15.90
2017-10-03T02:10:38.580Z,16.30
2017-10-03T02:13:06.317Z,16.40
2017-10-03T02:15:34.076Z,16.00
2017-10-03T02:18:01.837Z,15.00
2017-10-03T02:20:29.698Z,15.27
2017-10-03T02:22:57.576Z,15.67
2017-10-03T02:25:25.389Z,16.50
2017-10-03T02:27:53.176Z,16.13
2017-10-03T02:30:21.071Z,15.03
2017-10-03T02:32:48.826Z,15.07
2017-10-03T02:35:16.621Z,16.00
2017-10-03T02:37:45.225Z,15.93
2017-10-03T02:40:13.031Z,16.17
2017-10-03T02:42:40.823Z,15.33
2017-10-03T02:45:08.705Z,15.10
2017-10-03T02:47:36.441Z,15.17
2017-10-03T02:50:04.220Z,16.67
2017-10-03T02:52:31.980Z,16.17
2017-10-03T02:54:59.768Z,15.60
2017-10-03T02:57:27.515Z,15.27
2017-10-03T02:59:55.273Z,16.00
2017-10-03T03:02:23.080Z,15.47
2017-10-03T03:04:50.831Z,15.23
2017-10-03T03:07:18.651Z,15.97
2017-10-03T03:09:46.468Z,15.20
2017-10-03T03:12:14.219Z,19.33
2017-10-03T03:14:41.964Z,14.60
2017-10-03T03:17:09.752Z,14.87
2017-10-03T03:19:37.560Z,15.60
2017-10-03T03:22:05.300Z,13.77
2017-10-03T03:24:33.038Z,16.00
2017-10-03T03:27:00.813Z,15.23
2017-10-03T03:29:28.708Z,14.50
2017-10-03T03:31:57.278Z,14.60
2017-10-03T03:34:25.096Z,15.03
2017-10-03T03:36:52.964Z,14.23
2017-10-03T03:39:20.702Z,14.30
2017-10-03T03:41:49.213Z,15.23
2017-10-03T03:44:16.996Z,15.87
2017-10-03T03:46:44.734Z,15.87
2017-10-03T03:49:12.542Z,15.20
2017-10-03T03:51:40.345Z,15.30
2017-10-03T03:54:08.099Z,15.37
2017-10-03T03:56:35.855Z,16.30
2017-10-03T03:59:03.643Z,14.43
2017-10-03T04:01:31.388Z,14.60
2017-10-03T04:03:59.202Z,14.87
2017-10-03T04:06:26.955Z,14.63
2017-10-03T04:08:54.757Z,15.47
2017-10-03T04:11:22.502Z,16.30
2017-10-03T04:13:50.308Z,14.73
2017-10-03T04:16:18.123Z,15.77
2017-10-03T04:18:46.673Z,14.50
2017-10-03T04:21:14.455Z,15.20
2017-10-03T04:23:42.209Z,14.50
2017-10-03T04:26:10.083Z,15.37
2017-10-03T04:28:37.816Z,14.57
2017-10-03T04:31:05.862Z,16.30
2017-10-03T04:33:33.687Z,14.60
2017-10-03T04:36:01.523Z,14.00
2017-10-03T04:38:29.323Z,14.10
2017-10-03T04:40:57.144Z,15.70
2017-10-03T04:43:24.942Z,14.63
2017-10-03T04:45:52.699Z,16.13
2017-10-03T04:48:20.522Z,14.93
2017-10-03T04:50:49.092Z,14.10
2017-10-03T04:53:17.822Z,14.07
2017-10-03T04:55:46.702Z,16.50
2017-10-03T04:58:14.756Z,14.67
2017-10-03T05:00:42.585Z,15.00
2017-10-03T05:03:10.582Z,16.30
2017-10-03T05:05:38.458Z,15.27
2017-10-03T05:08:06.205Z,15.53
2017-10-03T05:10:34.122Z,15.00
2017-10-03T05:13:02.848Z,15.70
2017-10-03T05:15:30.695Z,15.50
2017-10-03T05:17:58.436Z,15.37
2017-10-03T05:20:26.269Z,16.07
2017-10-03T05:22:54.965Z,15.80
2017-10-03T05:25:22.734Z,16.13
2017-10-03T05:27:50.653Z,16.17
2017-10-03T05:30:18.402Z,14.73
2017-10-03T05:32:46.972Z,16.23
2017-10-03T05:35:14.811Z,15.83
2017-10-03T05:37:42.567Z,14.47
2017-10-03T05:40:10.383Z,15.00
2017-10-03T05:42:39.057Z,15.23
2017-10-03T05:45:06.884Z,15.40
2017-10-03T05:47:34.674Z,14.77
2017-10-03T05:50:02.492Z,15.80
2017-10-03T05:52:30.235Z,14.47
2017-10-03T05:54:57.971Z,16.77
2017-10-03T05:57:25.708Z,15.13
2017-10-03T05:59:53.455Z,15.03
2017-10-03T06:02:21.233Z,15.30
2017-10-03T06:04:49.078Z,15.03
2017-10-03T06:07:16.840Z,15.30
2017-10-03T06:09:44.588Z,16.50
2017-10-03T06:12:12.357Z,17.20
2017-10-03T06:14:40.157Z,16.07
2017-10-03T06:17:07.960Z,16.27
2017-10-03T06:19:35.819Z,15.10
2017-10-03T06:22:03.606Z,14.80
2017-10-03T06:24:31.348Z,15.77
2017-10-03T06:26:59.149Z,15.53
2017-10-03T06:29:26.944Z,15.87
2017-10-03T06:31:55.490Z,16.17
2017-10-03T06:34:23.344Z,15.40
2017-10-03T06:36:51.155Z,17.43
2017-10-03T06:39:18.907Z,16.10
2017-10-03T06:41:46.895Z,15.17
2017-10-03T06:44:14.629Z,15.00
2017-10-03T06:46:42.440Z,16.23
2017-10-03T06:49:10.260Z,16.83
2017-10-03T06:51:38.079Z,15.97
2017-10-03T06:54:06.577Z,17.43
2017-10-03T06:56:34.323Z,16.80
2017-10-03T06:59:02.061Z,16.20
2017-10-03T07:01:29.851Z,17.23
2017-10-03T07:03:57.582Z,17.70
2017-10-03T07:06:25.313Z,17.60
2017-10-03T07:08:53.109Z,18.83
2017-10-03T07:11:20.957Z,17.07
2017-10-03T07:13:48.771Z,19.00
2017-10-03T07:16:16.554Z,16.60
2017-10-03T07:18:44.414Z,18.33
2017-10-03T07:21:12.211Z,17.10
2017-10-03T07:23:40.724Z,19.43
2017-10-03T07:26:08.594Z,17.40
2017-10-03T07:28:36.408Z,18.73
2017-10-03T07:31:04.173Z,18.20
2017-10-03T07:33:31.995Z,19.90
2017-10-03T07:35:59.748Z,18.27
2017-10-03T07:38:27.529Z,20.00
2017-10-03T07:40:55.401Z,19.97
2017-10-03T07:43:23.179Z,18.83
2017-10-03T07:45:50.925Z,20.43
2017-10-03T07:48:18.749Z,20.10
2017-10-03T07:50:46.472Z,44.40
2017-10-03T07:53:14.272Z,31.20
2017-10-03T07:55:42.132Z,32.23
2017-10-03T07:58:09.870Z,28.17
2017-10-03T08:00:37.687Z,27.90
2017-10-03T08:03:06.241Z,23.53
2017-10-03T08:05:33.966Z,24.17
2017-10-03T08:08:01.696Z,23.43
2017-10-03T08:10:29.526Z,23.93
2017-10-03T08:12:57.311Z,24.13
2017-10-03T08:15:25.325Z,23.30
2017-10-03T08:17:53.216Z,22.57
2017-10-03T08:20:21.031Z,23.23
2017-10-03T08:22:48.773Z,28.30
2017-10-03T08:25:16.553Z,28.43
2017-10-03T08:27:44.280Z,29.77
2017-10-03T08:30:12.013Z,29.80
2017-10-03T08:32:39.900Z,37.53
2017-10-03T08:35:07.648Z,34.53
2017-10-03T08:37:36.226Z,36.77
2017-10-03T08:40:04.040Z,44.73
2017-10-03T08:42:31.830Z,44.90
2017-10-03T08:44:59.740Z,48.73
2017-10-03T08:47:27.565Z,48.23
2017-10-03T08:49:55.344Z,40.10
2017-10-03T08:52:23.178Z,48.67
2017-10-03T08:54:50.914Z,44.33
2017-10-03T08:57:18.711Z,49.23
2017-10-03T08:59:46.592Z,48.67
2017-10-03T09:02:14.404Z,40.17
2017-10-03T09:04:42.194Z,43.00
2017-10-03T09:07:09.922Z,46.50
2017-10-03T09:09:37.673Z,46.57
2017-10-03T09:12:05.472Z,35.77
2017-10-03T09:14:33.234Z,42.30
2017-10-03T09:17:00.979Z,42.37
2017-10-03T09:19:28.710Z,40.20
2017-10-03T09:21:56.538Z,44.80
2017-10-03T09:24:24.339Z,47.83
2017-10-03T09:26:52.155Z,43.57
2017-10-03T09:29:19.965Z,44.57
2017-10-03T09:31:47.877Z,42.07
2017-10-03T09:34:15.656Z,43.20
2017-10-03T09:36:43.550Z,39.73
2017-10-03T09:39:11.338Z,43.07
2017-10-03T09:41:39.134Z,42.27
2017-10-03T09:44:06.981Z,38.67
2017-10-03T09:46:34.756Z,43.23
2017-10-03T09:49:02.554Z,45.50
2017-10-03T09:51:35.988Z,49.10
2017-10-03T09:54:03.783Z,50.03
2017-10-03T09:56:31.584Z,51.33
2017-10-03T09:58:59.376Z,49.20
2017-10-03T10:01:27.170Z,50.40
2017-10-03T10:03:55.664Z,51.60
2017-10-03T10:06:23.553Z,50.00
2017-10-03T10:08:51.286Z,52.20
2017-10-03T10:11:19.109Z,49.37
2017-10-03T10:13:46.925Z,50.70
2017-10-03T10:16:15.492Z,52.73
2017-10-03T10:18:43.308Z,51.50
2017-10-03T10:21:11.122Z,53.30
2017-10-03T10:23:38.919Z,53.17
2017-10-03T10:26:07.439Z,52.53
2017-10-03T10:28:35.250Z,51.87
2017-10-03T10:31:03.066Z,47.63
2017-10-03T10:33:30.817Z,48.70
2017-10-03T10:35:58.622Z,47.67
2017-10-03T10:38:26.457Z,46.00
2017-10-03T10:40:54.327Z,49.50
2017-10-03T10:43:22.053Z,47.10
2017-10-03T10:45:49.792Z,46.97
2017-10-03T10:48:17.588Z,48.53
2017-10-03T10:50:45.326Z,47.70
2017-10-03T10:53:13.120Z,43.73
2017-10-03T10:55:40.930Z,40.33
2017-10-03T10:58:08.672Z,42.90
2017-10-03T11:00:36.417Z,44.40
2017-10-03T11:03:04.245Z,43.13
2017-10-03T11:05:32.061Z,40.73
2017-10-03T11:07:59.858Z,42.97
2017-10-03T11:10:27.724Z,42.60
2017-10-03T11:12:55.508Z,42.73
2017-10-03T11:15:23.245Z,41.73
2017-10-03T11:17:51.831Z,39.63
2017-10-03T11:20:19.608Z,39.03
2017-10-03T11:22:59.184Z,40.47
2017-10-03T11:25:26.913Z,35.80
2017-10-03T11:27:54.716Z,39.57
2017-10-03T11:30:22.555Z,37.57
2017-10-03T11:32:50.341Z,38.23
2017-10-03T11:35:18.084Z,36.30
2017-10-03T11:37:45.914Z,37.47
2017-10-03T11:40:13.662Z,37.17
2017-10-03T11:42:41.417Z,37.87
2017-10-03T11:45:09.308Z,33.03
2017-10-03T11:48:25.432Z,35.70
2017-10-03T11:50:53.275Z,31.70
2017-10-03T11:53:21.074Z,31.30
2017-10-03T11:55:48.821Z,32.10
2017-10-03T11:58:16.612Z,35.03
2017-10-03T12:00:44.347Z,37.07
2017-10-03T12:03:12.127Z,36.70
2017-10-03T12:05:40.010Z,34.17
2017-10-03T12:08:08.504Z,35.60
2017-10-03T12:10:37.123Z,33.73
2017-10-03T12:13:04.884Z,32.83
2017-10-03T12:15:32.695Z,33.00
2017-10-03T12:18:00.580Z,32.80
2017-10-03T12:20:28.382Z,32.57
2017-10-03T12:22:56.184Z,31.23
2017-10-03T12:25:24.008Z,26.57
2017-10-03T12:27:51.807Z,28.27
2017-10-03T12:30:19.556Z,29.53
2017-10-03T12:32:48.252Z,28.47
2017-10-03T12:35:16.119Z,25.90
2017-10-03T12:37:43.924Z,28.33
2017-10-03T12:40:11.801Z,25.73
2017-10-03T12:42:39.618Z,26.37
2017-10-03T12:45:07.357Z,26.30
2017-10-03T12:47:35.211Z,24.70
2017-10-03T12:50:02.956Z,23.57
2017-10-03T12:52:30.707Z,21.27
2017-10-03T12:54:58.544Z,23.10
2017-10-03T12:57:26.312Z,22.10
2017-10-03T12:59:54.103Z,22.27
2017-10-03T13:02:21.945Z,20.70
2017-10-03T13:04:49.793Z,22.47
2017-10-03T13:07:18.446Z,23.50
2017-10-03T13:09:46.260Z,24.90
2017-10-03T13:12:14.007Z,24.87
2017-10-03T13:14:42.673Z,23.50
2017-10-03T13:17:10.452Z,23.80
2017-10-03T13:19:38.250Z,20.80
2017-10-03T13:22:06.168Z,23.93
2017-10-03T13:24:33.910Z,22.73
2017-10-03T13:27:01.676Z,22.77
2017-10-03T13:29:29.476Z,20.17
2017-10-03T13:31:57.229Z,22.93
2017-10-03T13:34:25.078Z,25.70
2017-10-03T13:36:52.909Z,22.70
2017-10-03T13:39:21.504Z,24.93
2017-10-03T13:41:49.247Z,23.10
2017-10-03T13:44:16.981Z,23.73
2017-10-03T13:46:44.747Z,27.90
2017-10-03T13:49:12.592Z,30.23
2017-10-03T13:51:40.342Z,31.10
2017-10-03T13:54:08.866Z,30.60
2017-10-03T13:56:36.798Z,35.20
2017-10-03T13:59:04.546Z,35.30
2017-10-03T14:01:32.376Z,38.87
2017-10-03T14:04:00.127Z,37.50
2017-10-03T14:06:27.887Z,37.63
2017-10-03T14:08:55.671Z,36.60
2017-10-03T14:11:23.458Z,34.47
2017-10-03T14:13:51.194Z,36.40
2017-10-03T14:16:18.947Z,39.90
2017-10-03T14:18:46.709Z,37.53
2017-10-03T14:21:14.532Z,38.17
2017-10-03T14:23:42.287Z,37.40
2017-10-03T14:26:10.127Z,37.67
2017-10-03T14:28:37.930Z,34.80
2017-10-03T14:31:05.673Z,38.20
2017-10-03T14:33:33.574Z,37.60
2017-10-03T14:36:01.371Z,33.80
2017-10-03T14:38:29.167Z,33.50
2017-10-03T14:40:56.990Z,33.73
2017-10-03T14:43:25.950Z,32.97
2017-10-03T14:45:55.069Z,33.83
2017-10-03T14:48:22.849Z,29.13
2017-10-03T14:50:50.651Z,31.67
2017-10-03T14:53:18.503Z,32.03
2017-10-03T14:55:46.334Z,34.70
2017-10-03T14:58:14.085Z,31.47
2017-10-03T15:00:41.833Z,31.40
2017-10-03T15:03:09.614Z,29.40
2017-10-03T15:05:38.207Z,33.37
2017-10-03T15:08:06.089Z,31.10
2017-10-03T15:10:33.843Z,33.60
2017-10-03T15:13:01.574Z,32.53
2017-10-03T15:15:29.314Z,31.97
2017-10-03T15:17:57.876Z,31.23
2017-10-03T15:20:25.678Z,27.60
2017-10-03T15:22:53.448Z,30.60
2017-10-03T15:25:21.285Z,27.20
2017-10-03T15:27:49.051Z,30.80
2017-10-03T15:30:17.829Z,31.00
2017-10-03T15:32:45.650Z,30.87
2017-10-03T15:35:13.476Z,33.37
2017-10-03T15:37:41.361Z,32.47
2017-10-03T15:40:09.990Z,32.17
2017-10-03T15:42:37.771Z,32.93
2017-10-03T15:45:05.658Z,34.50
2017-10-03T15:47:33.472Z,35.57
2017-10-03T15:50:01.302Z,36.07
2017-10-03T15:52:29.048Z,34.10
2017-10-03T15:54:57.632Z,32.97
2017-10-03T15:57:25.430Z,33.70
2017-10-03T15:59:53.183Z,36.00
2017-10-03T16:02:20.934Z,35.83
2017-10-03T16:04:48.747Z,33.60
2017-10-03T16:07:16.542Z,37.63
2017-10-03T16:09:44.347Z,33.87
2017-10-03T16:12:12.112Z,36.10
2017-10-03T16:14:39.885Z,32.93
2017-10-03T16:17:08.598Z,32.33
2017-10-03T16:19:38.067Z,36.93
2017-10-03T16:22:07.336Z,34.27
2017-10-03T16:24:36.819Z,35.00
2017-10-03T16:27:06.082Z,35.57
2017-10-03T16:29:34.525Z,35.67
2017-10-03T16:32:02.695Z,37.50
2017-10-03T16:34:31.584Z,36.80
2017-10-03T16:37:00.760Z,30.80
2017-10-03T16:39:30.653Z,34.97
2017-10-03T16:41:58.563Z,32.87
2017-10-03T16:44:28.026Z,33.10
2017-10-03T16:46:57.023Z,37.17
2017-10-03T16:49:26.392Z,35.13
2017-10-03T16:51:55.777Z,37.00
2017-10-03T16:54:26.370Z,37.73
2017-10-03T16:56:54.198Z,36.53
2017-10-03T16:59:22.002Z,37.40
2017-10-03T17:01:49.763Z,37.20
2017-10-03T17:04:17.518Z,37.73
2017-10-03T17:06:45.333Z,37.93
2017-10-03T17:09:13.103Z,37.10
2017-10-03T17:11:40.936Z,41.30
2017-10-03T17:14:08.836Z,38.67
2017-10-03T17:16:36.665Z,40.67
2017-10-03T17:19:05.328Z,44.60
2017-10-03T17:21:33.244Z,43.20
2017-10-03T17:24:04.211Z,41.50
2017-10-03T17:26:34.032Z,40.83
2017-10-03T17:29:02.236Z,42.63
2017-10-03T17:31:30.435Z,43.50
2017-10-03T17:33:58.733Z,41.27
2017-10-03T17:36:27.885Z,40.67
2017-10-03T17:38:56.013Z,43.87
2017-10-03T17:41:32.114Z,42.73
2017-10-03T17:44:15.286Z,42.80
2017-10-03T17:46:43.759Z,44.03
2017-10-03T17:49:15.281Z,42.87
2017-10-03T17:51:47.444Z,45.20
2017-10-03T17:54:15.410Z,40.47
2017-10-03T17:56:46.879Z,40.17
2017-10-03T17:59:15.942Z,39.70
2017-10-03T18:01:48.233Z,37.83
2017-10-03T18:04:20.273Z,39.50
2017-10-03T18:06:48.116Z,39.30
2017-10-03T18:09:16.078Z,38.00
2017-10-03T18:11:44.045Z,36.10
2017-10-03T18:14:12.002Z,34.17
2017-10-03T18:16:40.157Z,37.00
2017-10-03T18:19:45.064Z,37.83
2017-10-03T18:22:12.922Z,37.53
2017-10-03T18:24:40.778Z,38.80
2017-10-03T18:27:08.610Z,35.10
2017-10-03T18:29:36.430Z,37.33
2017-10-03T18:32:04.173Z,37.30
2017-10-03T18:34:32.075Z,36.37
2017-10-03T18:36:59.888Z,37.00
2017-10-03T18:39:27.699Z,38.27
2017-10-03T18:41:55.593Z,35.80
2017-10-03T18:44:23.342Z,39.73
2017-10-03T18:46:51.144Z,36.40
2017-10-03T18:49:19.101Z,37.20
2017-10-03T18:51:46.941Z,38.90
2017-10-03T18:54:14.676Z,35.03
2017-10-03T18:56:42.427Z,37.03
2017-10-03T18:59:10.177Z,38.07
2017-10-03T19:01:37.950Z,41.50
2017-10-03T19:04:05.749Z,39.43
2017-10-03T19:06:33.592Z,39.00
2017-10-03T19:09:01.374Z,38.63
2017-10-03T19:11:29.660Z,38.07
2017-10-03T19:13:57.865Z,36.03
2017-10-03T19:16:25.706Z,35.00
2017-10-03T19:18:53.649Z,34.10
2017-10-03T19:21:21.496Z,39.27
2017-10-03T19:23:49.247Z,38.43
2017-10-03T19:26:17.167Z,40.77
2017-10-03T19:28:44.926Z,39.00
2017-10-03T19:31:12.700Z,42.10
2017-10-03T19:33:40.636Z,40.87
2017-10-03T19:36:09.584Z,40.00
2017-10-03T19:38:37.342Z,38.93
2017-10-03T19:41:05.120Z,39.87
2017-10-03T19:43:32.937Z,40.20
2017-10-03T19:46:01.599Z,42.07
2017-10-03T19:48:29.341Z,40.70
2017-10-03T19:50:57.100Z,42.30
2017-10-03T19:53:24.914Z,40.30
2017-10-03T19:55:53.003Z,42.63
2017-10-03T19:58:20.733Z,41.40
2017-10-03T20:00:48.597Z,42.00
2017-10-03T20:03:16.454Z,41.57
2017-10-03T20:05:44.293Z,42.47
2017-10-03T20:08:12.124Z,45.57
2017-10-03T20:10:40.790Z,45.17
2017-10-03T20:13:08.812Z,41.87
2017-10-03T20:15:37.504Z,42.93
2017-10-03T20:18:05.306Z,47.50
2017-10-03T20:20:33.120Z,43.90
2017-10-03T20:23:02.735Z,41.97
2017-10-03T20:25:30.646Z,41.60
2017-10-03T20:27:58.468Z,42.87
2017-10-03T20:30:27.170Z,39.03
2017-10-03T20:32:55.682Z,42.20
2017-10-03T20:35:23.496Z,42.30
2017-10-03T20:37:51.295Z,45.30
2017-10-03T20:40:19.067Z,43.07
2017-10-03T20:42:46.818Z,41.17
2017-10-03T20:45:14.639Z,42.03
2017-10-03T20:47:42.409Z,41.73
2017-10-03T20:50:10.148Z,40.67
2017-10-03T20:52:37.952Z,44.30
2017-10-03T20:55:05.713Z,45.13
2017-10-03T20:57:33.495Z,45.97
2017-10-03T21:00:01.326Z,42.40
2017-10-03T21:02:29.149Z,41.80
2017-10-03T21:04:58.065Z,43.93
2017-10-03T21:07:27.668Z,42.00
2017-10-03T21:09:56.484Z,42.40
2017-10-03T21:12:24.316Z,42.27
2017-10-03T21:14:52.128Z,41.50
2017-10-03T21:17:19.861Z,38.90
2017-10-03T21:19:47.620Z,45.23
2017-10-03T21:22:15.415Z,41.13
2017-10-03T21:24:43.222Z,43.30
2017-10-03T21:27:11.049Z,41.77
2017-10-03T21:29:38.858Z,44.10
2017-10-03T21:32:06.616Z,43.40
2017-10-03T21:34:34.554Z,44.50
2017-10-03T21:37:02.335Z,46.20
2017-10-03T21:39:30.086Z,44.03
2017-10-03T21:42:09.741Z,45.03
2017-10-03T21:44:37.540Z,45.83
2017-10-03T21:47:05.320Z,44.37
2017-10-03T21:49:33.116Z,46.40
2017-10-03T21:52:00.872Z,47.10
2017-10-03T21:54:28.623Z,46.10
2017-10-03T21:56:56.447Z,44.73
2017-10-03T21:59:24.200Z,46.23
2017-10-03T22:01:52.027Z,43.53
2017-10-03T22:04:19.931Z,45.37
2017-10-03T22:06:48.467Z,44.10
2017-10-03T22:09:16.216Z,44.30
2017-10-03T22:11:44.021Z,42.00
2017-10-03T22:14:12.558Z,41.50
2017-10-03T22:16:40.475Z,42.80
2017-10-03T22:19:09.033Z,43.77
2017-10-03T22:21:36.774Z,45.43
2017-10-03T22:24:04.693Z,42.90
2017-10-03T22:26:33.203Z,44.97
2017-10-03T22:29:01.021Z,42.80
2017-10-03T22:31:28.846Z,40.37
2017-10-03T22:33:56.585Z,39.57
2017-10-03T22:36:24.333Z,43.70
2017-10-03T22:38:52.094Z,44.67
2017-10-03T22:41:19.910Z,42.17
2017-10-03T22:43:47.690Z,40.70
2017-10-03T22:46:15.562Z,41.00
2017-10-03T22:48:43.311Z,40.90
2017-10-03T23:04:34.210Z,42.40
2017-10-03T23:07:01.993Z,44.87
2017-10-03T23:09:29.739Z,43.87
2017-10-03T23:11:57.501Z,42.23
2017-10-03T23:14:25.241Z,46.27
2017-10-03T23:16:52.979Z,47.50
2017-10-03T23:19:20.813Z,49.70
2017-10-03T23:21:48.621Z,51.27
2017-10-03T23:24:16.400Z,50.50
2017-10-03T23:26:44.241Z,50.20
2017-10-03T23:29:12.008Z,52.37
2017-10-03T23:31:39.758Z,53.77
2017-10-03T23:34:07.503Z,53.07
2017-10-03T23:36:35.270Z,53.10
2017-10-03T23:39:03.090Z,55.17
2017-10-03T23:41:30.907Z,55.20
2017-10-03T23:43:59.506Z,56.00
2017-10-03T23:46:27.338Z,54.13
2017-10-03T23:48:55.091Z,62.27
2017-10-03T23:51:22.855Z,61.23
2017-10-03T23:53:50.692Z,58.53
2017-10-03T23:56:18.418Z,60.97
2017-10-03T23:58:46.237Z,57.90
